Time,TemperatureF,DewpointF,PressureIn,WindDirection,WindDirectionDegrees,WindSpeedMPH,WindSpeedGustMPH,Humidity,HourlyPrecipIn,Conditions,Clouds,dailyrainin,SoftwareType,DateUTC
2013-04-07 00:02:00,43.9,43.1,29.68,SW,225,0.0,0.0,97,0.42,,---,0.04,VWS V14.01,2013-04-07 07:02:00,
2013-04-07 00:07:00,44.1,43.3,29.68,South,180,1.3,1.3,97,0.46,,---,0.08,VWS V14.01,2013-04-07 07:07:00,
2013-04-07 00:12:00,44.1,43.5,29.68,SW,225,0.0,0.9,98,0.50,,---,0.12,VWS V14.01,2013-04-07 07:12:00,
2013-04-07 00:17:00,44.2,43.7,29.68,NW,315,0.0,0.0,98,0.54,,---,0.21,VWS V14.01,2013-04-07 07:17:00,
2013-04-07 00:22:00,44.2,43.7,29.68,North,0,0.0,1.1,98,0.58,,---,0.29,VWS V14.01,2013-04-07 07:22:00,
2013-04-07 00:27:00,44.4,43.9,29.68,SSE,158,0.0,3.4,98,0.58,,---,0.33,VWS V14.01,2013-04-07 07:27:00,
2013-04-07 00:32:00,44.6,44.1,29.68,North,0,0.0,0.0,98,0.62,,---,0.37,VWS V14.01,2013-04-07 07:32:00,
2013-04-07 00:37:00,44.6,44.1,29.65,ESE,112,3.6,3.6,98,0.54,,---,0.37,VWS V14.01,2013-04-07 07:37:00,
2013-04-07 00:42:00,44.8,44.2,29.65,WSW,248,0.9,2.0,98,0.54,,---,0.41,VWS V14.01,2013-04-07 07:42:00,
2013-04-07 00:48:00,45.0,44.4,29.65,North,0,0.9,2.2,98,0.58,,---,0.45,VWS V14.01,2013-04-07 07:48:00,
2013-04-07 00:53:00,45.0,44.4,29.62,East,90,3.1,3.1,98,0.49,,---,0.45,VWS V14.01,2013-04-07 07:53:00,
2013-04-07 00:58:00,45.0,44.4,29.62,NNW,338,0.0,1.6,98,0.50,,---,0.50,VWS V14.01,2013-04-07 07:58:00,
2013-04-07 01:03:00,45.0,44.4,29.62,ESE,112,1.6,2.0,98,0.46,,---,0.50,VWS V14.01,2013-04-07 08:03:00,
2013-04-07 01:08:00,44.8,44.2,29.62,WNW,292,1.1,3.4,98,0.46,,---,0.54,VWS V14.01,2013-04-07 08:08:00,
2013-04-07 01:14:00,44.6,44.1,29.62,North,0,0.0,0.0,98,0.38,,---,0.54,VWS V14.01,2013-04-07 08:14:00,
2013-04-07 01:19:00,44.4,43.9,29.62,East,90,0.0,0.0,98,0.33,,---,0.54,VWS V14.01,2013-04-07 08:19:00,
2013-04-07 01:24:00,44.4,43.9,29.62,SSE,158,2.2,2.9,98,0.29,,---,0.58,VWS V14.01,2013-04-07 08:24:00,
2013-04-07 01:29:00,44.2,43.7,29.62,WSW,248,1.1,2.7,98,0.25,,---,0.58,VWS V14.01,2013-04-07 08:29:00,
2013-04-07 01:34:00,44.2,43.7,29.62,South,180,0.0,2.0,98,0.21,,---,0.58,VWS V14.01,2013-04-07 08:34:00,
2013-04-07 01:39:00,44.4,43.9,29.59,South,180,2.0,2.5,98,0.17,,---,0.58,VWS V14.01,2013-04-07 08:39:00,
2013-04-07 01:45:00,44.6,44.1,29.59,South,180,0.0,0.0,98,0.21,,---,0.62,VWS V14.01,2013-04-07 08:45:00,
2013-04-07 01:50:00,44.8,44.2,29.59,South,180,2.7,2.7,98,0.21,,---,0.66,VWS V14.01,2013-04-07 08:50:00,
2013-04-07 01:55:00,45.0,44.4,29.56,SSE,158,3.6,3.6,98,0.16,,---,0.66,VWS V14.01,2013-04-07 08:55:00,
2013-04-07 02:00:00,45.1,44.6,29.56,NW,315,2.5,3.8,98,0.20,,---,0.70,VWS V14.01,2013-04-07 09:00:00,
2013-04-07 02:05:00,45.3,44.8,29.56,SSE,158,4.0,4.0,98,0.16,,---,0.70,VWS V14.01,2013-04-07 09:05:00,
2013-04-07 02:10:00,45.3,44.8,29.56,SSE,158,1.1,2.2,98,0.16,,---,0.70,VWS V14.01,2013-04-07 09:10:00,
2013-04-07 02:15:00,45.3,44.8,29.56,WNW,292,0.0,1.6,98,0.16,,---,0.70,VWS V14.01,2013-04-07 09:15:00,
2013-04-07 02:20:00,45.5,45.0,29.56,SSW,202,0.0,0.0,98,0.16,,---,0.70,VWS V14.01,2013-04-07 09:20:00,
2013-04-07 02:25:00,45.5,45.0,29.56,North,0,2.2,2.2,98,0.16,,---,0.74,VWS V14.01,2013-04-07 09:25:00,
2013-04-07 02:30:00,45.7,45.2,29.56,West,270,0.0,0.0,98,0.16,,---,0.74,VWS V14.01,2013-04-07 09:30:00,
2013-04-07 02:35:00,45.7,45.2,29.56,South,180,0.0,0.0,98,0.16,,---,0.74,VWS V14.01,2013-04-07 09:35:00,
2013-04-07 02:40:00,45.9,45.3,29.56,WSW,248,0.0,0.0,98,0.16,,---,0.74,VWS V14.01,2013-04-07 09:40:00,
2013-04-07 02:46:00,45.9,45.3,29.56,NNW,338,0.0,0.0,98,0.12,,---,0.74,VWS V14.01,2013-04-07 09:46:00,
2013-04-07 02:51:00,46.0,45.5,29.53,NNW,338,1.3,1.3,98,0.12,,---,0.78,VWS V14.01,2013-04-07 09:51:00,
2013-04-07 02:56:00,46.2,45.7,29.53,SSW,202,0.0,0.0,98,0.12,,---,0.78,VWS V14.01,2013-04-07 09:56:00,
2013-04-07 03:01:00,46.4,45.9,29.53,SW,225,1.1,1.3,98,0.08,,---,0.78,VWS V14.01,2013-04-07 10:01:00,
2013-04-07 03:07:00,46.6,46.0,29.53,West,270,0.0,0.0,98,0.13,,---,0.83,VWS V14.01,2013-04-07 10:07:00,
2013-04-07 03:12:00,46.9,46.4,29.53,WSW,248,0.0,2.0,98,0.13,,---,0.83,VWS V14.01,2013-04-07 10:12:00,
2013-04-07 03:17:00,47.1,46.6,29.53,WNW,292,0.0,0.0,98,0.13,,---,0.83,VWS V14.01,2013-04-07 10:17:00,
2013-04-07 03:22:00,47.3,46.8,29.53,ESE,112,0.9,2.7,98,0.13,,---,0.83,VWS V14.01,2013-04-07 10:22:00,
2013-04-07 03:27:00,47.3,46.8,29.53,NNW,338,1.3,2.2,98,0.09,,---,0.83,VWS V14.01,2013-04-07 10:27:00,
2013-04-07 03:32:00,47.3,46.8,29.53,West,270,0.0,0.0,98,0.09,,---,0.83,VWS V14.01,2013-04-07 10:32:00,
2013-04-07 03:37:00,47.5,47.0,29.50,WSW,248,0.0,1.1,98,0.09,,---,0.83,VWS V14.01,2013-04-07 10:37:00,
2013-04-07 03:42:00,47.7,47.1,29.50,SE,135,1.1,1.6,98,0.09,,---,0.83,VWS V14.01,2013-04-07 10:42:00,
2013-04-07 03:47:00,47.7,47.1,29.50,WSW,248,1.6,1.6,98,0.13,,---,0.87,VWS V14.01,2013-04-07 10:47:00,
2013-04-07 03:52:00,47.8,47.3,29.47,SW,225,0.0,2.0,98,0.09,,---,0.87,VWS V14.01,2013-04-07 10:52:00,
2013-04-07 03:57:00,47.8,47.3,29.47,WNW,292,0.0,0.0,98,0.09,,---,0.87,VWS V14.01,2013-04-07 10:57:00,
2013-04-07 04:02:00,47.8,47.3,29.47,South,180,0.0,0.0,98,0.04,,---,0.87,VWS V14.01,2013-04-07 11:02:00,
2013-04-07 04:07:00,47.8,47.3,29.50,SSW,202,4.0,4.0,98,0.04,,---,0.87,VWS V14.01,2013-04-07 11:07:00,
2013-04-07 04:13:00,47.8,47.3,29.50,North,0,1.1,1.6,98,0.04,,---,0.87,VWS V14.01,2013-04-07 11:13:00,
2013-04-07 04:18:00,48.0,47.5,29.50,NW,315,0.0,2.5,98,0.04,,---,0.87,VWS V14.01,2013-04-07 11:18:00,
2013-04-07 04:23:00,48.0,47.5,29.50,SW,225,0.9,2.2,98,0.04,,---,0.87,VWS V14.01,2013-04-07 11:23:00,
2013-04-07 04:28:00,48.0,47.5,29.50,West,270,0.0,0.0,98,0.04,,---,0.87,VWS V14.01,2013-04-07 11:28:00,
2013-04-07 04:33:00,48.0,47.5,29.50,SW,225,1.6,1.6,98,0.04,,---,0.87,VWS V14.01,2013-04-07 11:33:00,
2013-04-07 04:38:00,48.0,47.5,29.50,West,270,0.0,0.0,98,0.04,,---,0.87,VWS V14.01,2013-04-07 11:38:00,
2013-04-07 04:43:00,48.0,47.5,29.50,SW,225,0.0,2.2,98,0.08,,---,0.91,VWS V14.01,2013-04-07 11:43:00,
2013-04-07 04:48:00,48.0,47.5,29.50,WSW,248,2.0,3.1,98,0.04,,---,0.91,VWS V14.01,2013-04-07 11:48:00,
2013-04-07 04:53:00,48.0,47.5,29.47,West,270,0.0,0.0,98,0.04,,---,0.91,VWS V14.01,2013-04-07 11:53:00,
2013-04-07 04:58:00,48.0,47.5,29.47,WSW,248,3.4,3.4,98,0.04,,---,0.91,VWS V14.01,2013-04-07 11:58:00,
2013-04-07 05:03:00,48.2,47.7,29.47,SW,225,1.6,2.7,98,0.04,,---,0.91,VWS V14.01,2013-04-07 12:03:00,
2013-04-07 05:08:00,48.2,47.7,29.50,South,180,1.1,2.2,98,0.04,,---,0.91,VWS V14.01,2013-04-07 12:08:00,
2013-04-07 05:13:00,48.2,47.7,29.50,West,270,0.0,0.0,98,0.04,,---,0.91,VWS V14.01,2013-04-07 12:13:00,
2013-04-07 05:19:00,48.4,47.8,29.50,ENE,68,1.1,2.7,98,0.04,,---,0.91,VWS V14.01,2013-04-07 12:19:00,
2013-04-07 05:24:00,48.4,47.8,29.53,West,270,0.0,0.9,98,0.04,,---,0.91,VWS V14.01,2013-04-07 12:24:00,
2013-04-07 05:29:00,48.4,47.8,29.53,West,270,0.0,0.0,98,0.08,,---,0.95,VWS V14.01,2013-04-07 12:29:00,
2013-04-07 05:35:00,48.2,47.7,29.53,WNW,292,0.0,0.9,98,0.08,,---,0.95,VWS V14.01,2013-04-07 12:35:00,
2013-04-07 05:40:00,48.2,47.7,29.56,West,270,0.0,0.0,98,0.04,,---,0.95,VWS V14.01,2013-04-07 12:40:00,
2013-04-07 05:45:00,48.2,47.7,29.56,South,180,0.0,1.3,98,0.04,,---,0.95,VWS V14.01,2013-04-07 12:45:00,
2013-04-07 05:50:00,48.2,47.7,29.56,NE,45,0.0,1.6,98,0.04,,---,0.95,VWS V14.01,2013-04-07 12:50:00,
2013-04-07 05:55:00,48.2,47.7,29.53,East,90,3.1,3.1,98,0.04,,---,0.95,VWS V14.01,2013-04-07 12:55:00,
2013-04-07 06:00:00,48.0,47.5,29.53,SSE,158,3.8,3.8,98,0.04,,---,0.95,VWS V14.01,2013-04-07 13:00:00,
2013-04-07 06:05:00,47.7,47.1,29.53,SSW,202,1.1,2.5,98,0.04,,---,0.95,VWS V14.01,2013-04-07 13:05:00,
2013-04-07 06:13:00,47.3,46.8,29.59,NW,315,3.1,3.1,98,0.04,,---,0.95,VWS V14.01,2013-04-07 13:13:00,
2013-04-07 06:18:00,46.9,46.4,29.59,WSW,248,3.1,3.1,98,0.04,,---,0.95,VWS V14.01,2013-04-07 13:18:00,
2013-04-07 06:23:00,46.4,45.3,29.62,West,270,3.1,6.5,96,0.04,,---,0.95,VWS V14.01,2013-04-07 13:23:00,
2013-04-07 06:28:00,46.0,45.0,29.62,West,270,0.0,1.6,96,0.04,,---,0.95,VWS V14.01,2013-04-07 13:28:00,
2013-04-07 06:33:00,45.9,44.5,29.62,North,0,3.1,3.1,95,0.00,,---,0.95,VWS V14.01,2013-04-07 13:33:00,
2013-04-07 06:38:00,45.5,43.9,29.65,WSW,248,0.0,3.4,94,0.00,,---,0.95,VWS V14.01,2013-04-07 13:38:00,
2013-04-07 06:43:00,45.0,43.1,29.65,SSW,202,3.1,4.9,93,0.00,,---,0.95,VWS V14.01,2013-04-07 13:43:00,
2013-04-07 06:49:00,44.8,41.7,29.65,West,270,0.0,0.9,89,0.00,,---,0.95,VWS V14.01,2013-04-07 13:49:00,
2013-04-07 06:54:00,44.4,41.7,29.68,NW,315,1.3,2.5,90,0.00,,---,0.95,VWS V14.01,2013-04-07 13:54:00,
2013-04-07 06:59:00,44.2,41.8,29.68,WSW,248,3.1,3.1,91,0.00,,---,0.95,VWS V14.01,2013-04-07 13:59:00,
2013-04-07 07:04:00,43.9,41.1,29.68,South,180,3.6,3.6,90,0.00,,---,0.95,VWS V14.01,2013-04-07 14:04:00,
2013-04-07 07:09:00,43.7,40.7,29.68,NW,315,0.9,3.8,89,0.00,,---,0.95,VWS V14.01,2013-04-07 14:09:00,
2013-04-07 07:14:00,43.5,40.2,29.68,SSW,202,1.3,2.7,88,0.00,,---,0.95,VWS V14.01,2013-04-07 14:14:00,
2013-04-07 07:19:00,43.3,39.7,29.68,West,270,1.1,5.4,87,0.00,,---,0.95,VWS V14.01,2013-04-07 14:19:00,
2013-04-07 07:24:00,43.3,39.7,29.68,SSW,202,0.0,2.9,87,0.00,,---,0.95,VWS V14.01,2013-04-07 14:24:00,
2013-04-07 07:29:00,43.3,40.0,29.68,NW,315,0.0,0.0,88,0.00,,---,0.95,VWS V14.01,2013-04-07 14:29:00,
2013-04-07 07:35:00,43.3,40.6,29.68,NW,315,0.0,0.0,90,0.00,,---,0.95,VWS V14.01,2013-04-07 14:35:00,
2013-04-07 07:40:00,43.3,40.9,29.74,NNW,338,0.0,0.0,91,0.00,,---,0.95,VWS V14.01,2013-04-07 14:40:00,
2013-04-07 07:45:00,43.5,41.3,29.74,WSW,248,0.0,2.5,92,0.00,,---,0.95,VWS V14.01,2013-04-07 14:45:00,
2013-04-07 07:50:00,43.5,41.6,29.74,West,270,0.0,0.0,93,0.00,,---,0.95,VWS V14.01,2013-04-07 14:50:00,
2013-04-07 07:55:00,43.9,42.0,29.74,West,270,0.0,2.0,93,0.00,,---,0.95,VWS V14.01,2013-04-07 14:55:00,
2013-04-07 08:00:00,44.2,42.3,29.74,West,270,0.0,0.0,93,0.00,,---,0.95,VWS V14.01,2013-04-07 15:00:00,
2013-04-07 08:05:00,44.6,42.7,29.74,NNW,338,0.0,0.0,93,0.00,,---,0.95,VWS V14.01,2013-04-07 15:05:00,
2013-04-07 08:10:00,44.6,42.4,29.71,WSW,248,0.0,0.0,92,0.00,,---,0.95,VWS V14.01,2013-04-07 15:10:00,
2013-04-07 08:15:00,44.8,42.6,29.71,ENE,68,0.0,0.9,92,0.00,,---,0.95,VWS V14.01,2013-04-07 15:15:00,
2013-04-07 08:21:00,44.8,42.6,29.71,NW,315,0.0,0.0,92,0.00,,---,0.95,VWS V14.01,2013-04-07 15:21:00,
2013-04-07 08:26:00,44.6,42.1,29.74,West,270,0.0,2.7,91,0.00,,---,0.95,VWS V14.01,2013-04-07 15:26:00,
2013-04-07 08:31:00,44.6,41.8,29.74,WNW,292,0.0,1.6,90,0.00,,---,0.95,VWS V14.01,2013-04-07 15:31:00,
2013-04-07 08:36:00,44.6,41.8,29.74,West,270,0.0,0.9,90,0.00,,---,0.95,VWS V14.01,2013-04-07 15:36:00,
2013-04-07 08:41:00,44.6,41.8,29.74,WSW,248,0.0,0.0,90,0.00,,---,0.95,VWS V14.01,2013-04-07 15:41:00,
2013-04-07 08:46:00,44.6,41.6,29.74,South,180,0.0,0.0,89,0.00,,---,0.95,VWS V14.01,2013-04-07 15:46:00,
2013-04-07 08:52:00,44.4,41.4,29.76,SSE,158,0.0,0.0,89,0.00,,---,0.95,VWS V14.01,2013-04-07 15:52:00,
2013-04-07 08:57:00,44.6,41.6,29.76,WSW,248,2.9,2.9,89,0.00,,---,0.95,VWS V14.01,2013-04-07 15:57:00,
2013-04-07 09:02:00,44.8,42.0,29.76,SE,135,0.9,0.9,90,0.00,,---,0.95,VWS V14.01,2013-04-07 16:02:00,
2013-04-07 09:07:00,45.1,42.4,29.76,WNW,292,0.0,0.0,90,0.00,,---,0.95,VWS V14.01,2013-04-07 16:07:00,
2013-04-07 09:12:00,45.1,42.4,29.76,WSW,248,0.0,1.1,90,0.00,,---,0.95,VWS V14.01,2013-04-07 16:12:00,
2013-04-07 09:17:00,45.3,42.3,29.76,WNW,292,0.0,0.0,89,0.00,,---,0.95,VWS V14.01,2013-04-07 16:17:00,
2013-04-07 09:22:00,45.7,42.6,29.76,SSW,202,0.0,0.0,89,0.00,,---,0.95,VWS V14.01,2013-04-07 16:22:00,
2013-04-07 09:27:00,46.0,43.0,29.76,South,180,1.3,1.3,89,0.00,,---,0.95,VWS V14.01,2013-04-07 16:27:00,
2013-04-07 09:32:00,46.0,42.7,29.76,NE,45,0.0,0.0,88,0.00,,---,0.95,VWS V14.01,2013-04-07 16:32:00,
2013-04-07 09:37:00,46.8,43.1,29.79,WSW,248,0.0,0.0,87,0.00,,---,0.95,VWS V14.01,2013-04-07 16:37:00,
2013-04-07 09:42:00,47.8,44.5,29.79,North,0,0.0,0.0,88,0.00,,---,0.95,VWS V14.01,2013-04-07 16:42:00,
2013-04-07 09:47:00,48.6,44.6,29.79,WNW,292,0.0,0.0,86,0.00,,---,0.95,VWS V14.01,2013-04-07 16:47:00,
2013-04-07 09:53:00,50.4,45.7,29.76,West,270,0.0,0.9,84,0.00,,---,0.95,VWS V14.01,2013-04-07 16:53:00,
2013-04-07 09:58:00,52.5,45.2,29.76,SSE,158,3.8,6.5,76,0.00,,---,0.95,VWS V14.01,2013-04-07 16:58:00,
2013-04-07 10:03:00,53.1,44.3,29.76,West,270,2.7,2.7,72,0.00,,---,0.95,VWS V14.01,2013-04-07 17:03:00,
2013-04-07 10:08:00,52.5,43.4,29.79,NNW,338,0.0,1.1,71,0.00,,---,0.95,VWS V14.01,2013-04-07 17:08:00,
2013-04-07 10:13:00,52.3,42.5,29.79,WSW,248,2.0,3.1,69,0.00,,---,0.95,VWS V14.01,2013-04-07 17:13:00,
2013-04-07 10:18:00,51.8,41.2,29.79,South,180,0.0,2.5,67,0.00,,---,0.95,VWS V14.01,2013-04-07 17:18:00,
2013-04-07 10:23:00,50.9,40.7,29.79,SW,225,1.1,1.6,68,0.00,,---,0.95,VWS V14.01,2013-04-07 17:23:00,
2013-04-07 10:28:00,50.5,41.1,29.79,WSW,248,0.0,1.1,70,0.00,,---,0.95,VWS V14.01,2013-04-07 17:28:00,
2013-04-07 10:33:00,49.6,39.9,29.79,North,0,0.0,0.9,69,0.00,,---,0.95,VWS V14.01,2013-04-07 17:33:00,
2013-04-07 10:38:00,49.3,40.7,29.79,West,270,0.0,0.0,72,0.04,,---,0.99,VWS V14.01,2013-04-07 17:38:00,
2013-04-07 10:43:00,48.6,40.3,29.79,NW,315,0.0,0.0,73,0.04,,---,0.99,VWS V14.01,2013-04-07 17:43:00,
2013-04-07 10:48:00,48.4,40.8,29.79,West,270,0.0,0.0,75,0.08,,---,1.03,VWS V14.01,2013-04-07 17:48:00,
2013-04-07 10:53:00,48.9,41.7,29.79,South,180,0.0,0.0,76,0.13,,---,1.08,VWS V14.01,2013-04-07 17:53:00,
2013-04-07 10:58:00,50.4,44.1,29.79,WNW,292,0.0,0.0,79,0.13,,---,1.08,VWS V14.01,2013-04-07 17:58:00,
2013-04-07 11:04:00,52.3,46.0,29.79,ESE,112,1.1,2.2,79,0.13,,---,1.08,VWS V14.01,2013-04-07 18:04:00,
2013-04-07 11:09:00,52.2,44.5,29.79,South,180,2.2,2.7,75,0.13,,---,1.08,VWS V14.01,2013-04-07 18:09:00,
2013-04-07 11:14:00,52.5,44.1,29.79,South,180,2.7,2.7,73,0.13,,---,1.08,VWS V14.01,2013-04-07 18:14:00,
2013-04-07 11:19:00,52.3,43.6,29.79,South,180,2.7,2.7,72,0.13,,---,1.08,VWS V14.01,2013-04-07 18:19:00,
2013-04-07 11:24:00,52.3,43.2,29.76,ENE,68,2.0,2.0,71,0.13,,---,1.08,VWS V14.01,2013-04-07 18:24:00,
2013-04-07 11:30:00,51.4,42.0,29.76,WSW,248,0.0,0.0,70,0.13,,---,1.08,VWS V14.01,2013-04-07 18:30:00,
2013-04-07 11:35:00,53.8,45.0,29.76,SW,225,0.0,0.9,72,0.13,,---,1.08,VWS V14.01,2013-04-07 18:35:00,
2013-04-07 11:40:00,53.6,44.4,29.79,North,0,0.0,0.0,71,0.09,,---,1.08,VWS V14.01,2013-04-07 18:40:00,
2013-04-07 11:45:00,52.0,42.1,29.79,West,270,2.7,3.8,69,0.13,,---,1.12,VWS V14.01,2013-04-07 18:45:00,
2013-04-07 11:50:00,50.2,40.8,29.79,WNW,292,0.0,0.0,70,0.08,,---,1.16,VWS V14.01,2013-04-07 18:50:00,
2013-04-07 11:55:00,48.7,40.1,29.79,West,270,0.0,0.9,72,0.12,,---,1.20,VWS V14.01,2013-04-07 18:55:00,
2013-04-07 12:00:00,47.5,39.3,29.79,WSW,248,2.0,2.7,73,0.29,,---,1.37,VWS V14.01,2013-04-07 19:00:00,
2013-04-07 12:05:00,46.4,38.9,29.79,WNW,292,0.0,0.0,75,0.37,,---,1.45,VWS V14.01,2013-04-07 19:05:00,
2013-04-07 12:10:00,45.9,38.7,29.79,WSW,248,0.0,0.0,76,0.41,,---,1.49,VWS V14.01,2013-04-07 19:10:00,
2013-04-07 12:16:00,45.1,38.7,29.79,WNW,292,2.0,2.5,78,0.50,,---,1.58,VWS V14.01,2013-04-07 19:16:00,
2013-04-07 12:21:00,45.0,39.2,29.79,NW,315,0.0,0.0,80,0.53,,---,1.61,VWS V14.01,2013-04-07 19:21:00,
2013-04-07 12:26:00,45.3,40.5,29.82,West,270,0.0,2.7,83,0.58,,---,1.66,VWS V14.01,2013-04-07 19:26:00,
2013-04-07 12:31:00,45.5,41.0,29.82,West,270,0.0,1.1,84,0.62,,---,1.70,VWS V14.01,2013-04-07 19:31:00,
2013-04-07 12:36:00,45.1,40.9,29.82,NE,45,0.0,0.0,85,0.66,,---,1.74,VWS V14.01,2013-04-07 19:36:00,
2013-04-07 12:42:00,45.3,41.4,29.82,NNE,22,0.0,0.0,86,0.66,,---,1.74,VWS V14.01,2013-04-07 19:42:00,
2013-04-07 12:47:00,45.9,42.2,29.82,NNE,22,1.3,2.5,87,0.62,,---,1.74,VWS V14.01,2013-04-07 19:47:00,
2013-04-07 12:52:00,46.6,42.9,29.82,East,90,0.0,0.0,87,0.58,,---,1.74,VWS V14.01,2013-04-07 19:52:00,
2013-04-07 12:57:00,48.0,44.9,29.82,WSW,248,0.0,1.3,89,0.54,,---,1.78,VWS V14.01,2013-04-07 19:57:00,
2013-04-07 13:02:00,51.1,48.2,29.82,WSW,248,0.0,1.3,90,0.37,,---,1.78,VWS V14.01,2013-04-07 20:02:00,
2013-04-07 13:07:00,51.6,47.3,29.82,SSE,158,1.3,2.5,85,0.33,,---,1.78,VWS V14.01,2013-04-07 20:07:00,
2013-04-07 13:12:00,50.9,42.9,29.82,SSW,202,2.9,3.1,74,0.29,,---,1.78,VWS V14.01,2013-04-07 20:12:00,
2013-04-07 13:18:00,49.8,42.2,29.82,South,180,0.0,2.0,75,0.17,,---,1.78,VWS V14.01,2013-04-07 20:18:00,
2013-04-07 13:23:00,50.2,42.9,29.82,WSW,248,1.6,2.0,76,0.17,,---,1.78,VWS V14.01,2013-04-07 20:23:00,
2013-04-07 13:28:00,49.8,42.9,29.82,West,270,1.1,2.0,77,0.12,,---,1.78,VWS V14.01,2013-04-07 20:28:00,
2013-04-07 13:33:00,50.5,44.3,29.82,NW,315,0.0,0.0,79,0.12,,---,1.82,VWS V14.01,2013-04-07 20:33:00,
2013-04-07 13:38:00,50.4,43.1,29.85,SSE,158,3.8,3.8,76,0.08,,---,1.82,VWS V14.01,2013-04-07 20:38:00,
2013-04-07 13:43:00,50.2,42.6,29.85,South,180,2.9,3.6,75,0.08,,---,1.82,VWS V14.01,2013-04-07 20:43:00,
2013-04-07 13:49:00,50.2,42.9,29.85,SSW,202,0.9,0.9,76,0.08,,---,1.82,VWS V14.01,2013-04-07 20:49:00,
2013-04-07 13:54:00,50.2,42.9,29.85,SE,135,0.9,2.5,76,0.08,,---,1.82,VWS V14.01,2013-04-07 20:54:00,
2013-04-07 13:59:00,50.4,43.4,29.85,South,180,0.9,2.7,77,0.04,,---,0.00,VWS V14.01,2013-04-07 20:59:00,
2013-04-07 14:04:00,50.5,42.9,29.85,North,0,1.6,2.5,75,0.04,,---,1.82,VWS V14.01,2013-04-07 21:04:00,
2013-04-07 14:09:00,52.5,45.2,29.85,West,270,0.0,2.5,76,0.04,,---,1.82,VWS V14.01,2013-04-07 21:09:00,
2013-04-07 14:14:00,53.6,45.5,29.85,SSW,202,2.2,2.5,74,0.04,,---,1.82,VWS V14.01,2013-04-07 21:14:00,
2013-04-07 14:19:00,52.9,44.1,29.85,NNW,338,0.9,0.9,72,0.04,,---,1.82,VWS V14.01,2013-04-07 21:19:00,
2013-04-07 14:25:00,52.3,42.1,29.85,West,270,2.2,2.2,68,0.04,,---,1.82,VWS V14.01,2013-04-07 21:25:00,
2013-04-07 14:30:00,53.1,43.9,29.85,NNW,338,0.0,0.0,71,0.00,,---,1.82,VWS V14.01,2013-04-07 21:30:00,
2013-04-07 14:35:00,53.8,43.9,29.85,West,270,3.1,3.1,69,0.00,,---,1.82,VWS V14.01,2013-04-07 21:35:00,
2013-04-07 14:40:00,53.8,43.5,29.85,WNW,292,0.0,3.1,68,0.00,,---,1.82,VWS V14.01,2013-04-07 21:40:00,
2013-04-07 14:45:00,53.1,41.2,29.85,SW,225,3.1,3.4,64,0.00,,---,1.82,VWS V14.01,2013-04-07 21:45:00,
2013-04-07 14:50:00,52.2,40.4,29.85,NW,315,2.5,3.6,64,0.00,,---,1.82,VWS V14.01,2013-04-07 21:50:00,
2013-04-07 14:56:00,51.1,40.1,29.85,West,270,2.5,2.5,66,0.00,,---,1.82,VWS V14.01,2013-04-07 21:56:00,
2013-04-07 15:01:00,51.4,41.6,29.85,SSE,158,2.5,3.4,69,0.00,,---,1.82,VWS V14.01,2013-04-07 22:01:00,
2013-04-07 15:06:00,52.3,42.9,29.85,East,90,1.6,2.5,70,0.00,,---,1.82,VWS V14.01,2013-04-07 22:06:00,
2013-04-07 15:11:00,52.3,41.7,29.85,NE,45,0.9,0.9,67,0.00,,---,1.82,VWS V14.01,2013-04-07 22:11:00,
2013-04-07 15:17:00,50.9,38.4,29.85,WSW,248,1.1,3.8,62,0.00,,---,1.82,VWS V14.01,2013-04-07 22:17:00,
2013-04-07 15:22:00,50.2,38.9,29.85,SSE,158,1.6,3.1,65,0.00,,---,1.82,VWS V14.01,2013-04-07 22:22:00,
2013-04-07 15:27:00,49.5,38.6,29.85,West,270,0.0,3.1,66,0.00,,---,1.82,VWS V14.01,2013-04-07 22:27:00,
2013-04-07 15:32:00,48.9,38.1,29.85,SW,225,2.0,2.5,66,0.00,,---,1.82,VWS V14.01,2013-04-07 22:32:00,
2013-04-07 15:37:00,48.7,38.3,29.82,NNW,338,0.0,0.0,67,0.00,,---,1.82,VWS V14.01,2013-04-07 22:37:00,
2013-04-07 15:43:00,48.9,39.2,29.82,SW,225,3.4,3.4,69,0.00,,---,1.82,VWS V14.01,2013-04-07 22:43:00,
2013-04-07 15:48:00,49.5,39.7,29.82,ENE,68,0.0,1.6,69,0.00,,---,1.82,VWS V14.01,2013-04-07 22:48:00,
2013-04-07 15:53:00,50.0,40.6,29.85,South,180,1.3,2.7,70,0.00,,---,1.82,VWS V14.01,2013-04-07 22:53:00,
2013-04-07 15:59:00,49.8,40.4,29.85,WNW,292,0.0,0.0,70,0.00,,---,1.82,VWS V14.01,2013-04-07 22:59:00,
2013-04-07 16:04:00,50.2,41.2,29.85,West,270,0.0,0.0,71,0.00,,---,1.82,VWS V14.01,2013-04-07 23:04:00,
2013-04-07 16:09:00,51.1,42.0,29.88,SSW,202,2.7,2.7,71,0.00,,---,1.82,VWS V14.01,2013-04-07 23:09:00,
2013-04-07 16:14:00,51.1,41.3,29.88,WSW,248,0.0,3.1,69,0.00,,---,1.82,VWS V14.01,2013-04-07 23:14:00,
2013-04-07 16:19:00,50.9,41.5,29.88,WSW,248,1.6,1.6,70,0.00,,---,1.82,VWS V14.01,2013-04-07 23:19:00,
2013-04-07 16:24:00,50.2,39.7,29.85,West,270,1.3,2.5,67,0.00,,---,1.82,VWS V14.01,2013-04-07 23:24:00,
2013-04-07 16:29:00,48.7,38.3,29.85,West,270,1.3,5.6,67,0.00,,---,1.82,VWS V14.01,2013-04-07 23:29:00,
2013-04-07 16:34:00,47.8,39.3,29.85,North,0,0.0,1.6,72,0.00,,---,1.82,VWS V14.01,2013-04-07 23:34:00,
2013-04-07 16:39:00,48.0,40.1,29.82,WSW,248,1.6,2.0,74,0.00,,---,1.82,VWS V14.01,2013-04-07 23:39:00,
2013-04-07 16:44:00,48.2,40.3,29.82,ENE,68,0.0,0.0,74,0.00,,---,1.82,VWS V14.01,2013-04-07 23:44:00,
2013-04-07 16:49:00,48.6,41.0,29.82,West,270,0.0,2.2,75,0.00,,---,1.82,VWS V14.01,2013-04-07 23:49:00,
2013-04-07 16:54:00,48.6,40.7,29.85,WNW,292,0.0,0.0,74,0.00,,---,1.82,VWS V14.01,2013-04-07 23:54:00,
2013-04-07 17:00:00,48.4,40.5,29.85,West,270,0.0,0.9,74,0.00,,---,1.82,VWS V14.01,2013-04-08 00:00:00,
2013-04-07 17:05:00,48.6,40.7,29.85,NNW,338,0.0,1.6,74,0.00,,---,1.82,VWS V14.01,2013-04-08 00:05:00,
2013-04-07 17:10:00,48.2,40.3,29.85,SW,225,0.0,0.0,74,0.00,,---,1.82,VWS V14.01,2013-04-08 00:10:00,
2013-04-07 17:15:00,48.0,40.5,29.85,NW,315,0.9,0.9,75,0.00,,---,1.82,VWS V14.01,2013-04-08 00:15:00,
2013-04-07 17:20:00,47.7,40.1,29.85,West,270,0.0,0.0,75,0.00,,---,1.82,VWS V14.01,2013-04-08 00:20:00,
2013-04-07 17:25:00,47.5,40.0,29.85,WNW,292,0.0,0.0,75,0.00,,---,1.82,VWS V14.01,2013-04-08 00:25:00,
2013-04-07 17:30:00,47.7,40.5,29.85,WNW,292,0.9,0.9,76,0.00,,---,1.82,VWS V14.01,2013-04-08 00:30:00,
2013-04-07 17:35:00,48.0,40.8,29.85,NW,315,1.3,1.6,76,0.00,,---,1.82,VWS V14.01,2013-04-08 00:35:00,
2013-04-07 17:40:00,48.2,41.0,29.85,West,270,0.0,0.0,76,0.00,,---,1.82,VWS V14.01,2013-04-08 00:40:00,
2013-04-07 17:46:00,48.0,40.8,29.85,West,270,0.0,0.0,76,0.00,,---,1.82,VWS V14.01,2013-04-08 00:46:00,
2013-04-07 17:51:00,47.8,40.7,29.85,NW,315,0.0,0.0,76,0.00,,---,1.82,VWS V14.01,2013-04-08 00:51:00,
2013-04-07 17:56:00,47.3,39.5,29.85,WNW,292,0.0,0.0,74,0.00,,---,1.82,VWS V14.01,2013-04-08 00:56:00,
2013-04-07 18:02:00,46.8,39.3,29.85,WSW,248,2.0,2.0,75,0.00,,---,1.82,VWS V14.01,2013-04-08 01:02:00,
2013-04-07 18:07:00,46.6,39.4,29.85,West,270,1.6,2.7,76,0.00,,---,1.82,VWS V14.01,2013-04-08 01:07:00,
2013-04-07 18:12:00,46.4,39.6,29.85,NE,45,1.1,1.1,77,0.00,,---,1.82,VWS V14.01,2013-04-08 01:12:00,
2013-04-07 18:17:00,46.4,39.6,29.85,South,180,0.0,1.1,77,0.00,,---,1.82,VWS V14.01,2013-04-08 01:17:00,
2013-04-07 18:22:00,46.2,39.8,29.88,WSW,248,0.0,0.0,78,0.00,,---,1.82,VWS V14.01,2013-04-08 01:22:00,
2013-04-07 18:27:00,45.9,39.7,29.88,WSW,248,0.0,1.3,79,0.00,,---,1.82,VWS V14.01,2013-04-08 01:27:00,
2013-04-07 18:32:00,45.9,40.0,29.88,SSW,202,0.0,0.0,80,0.00,,---,1.82,VWS V14.01,2013-04-08 01:32:00,
2013-04-07 18:38:00,45.9,40.0,29.88,WSW,248,0.0,0.0,80,0.00,,---,1.82,VWS V14.01,2013-04-08 01:38:00,
2013-04-07 18:43:00,45.9,40.4,29.88,WNW,292,0.9,0.9,81,0.00,,---,1.82,VWS V14.01,2013-04-08 01:43:00,
2013-04-07 18:48:00,45.9,40.7,29.88,SSW,202,1.3,2.2,82,0.00,,---,1.82,VWS V14.01,2013-04-08 01:48:00,
2013-04-07 18:53:00,45.5,40.3,29.88,WSW,248,3.1,3.1,82,0.00,,---,1.82,VWS V14.01,2013-04-08 01:53:00,
2013-04-07 18:58:00,45.3,40.2,29.88,West,270,0.0,1.1,82,0.00,,---,1.82,VWS V14.01,2013-04-08 01:58:00,
2013-04-07 19:04:00,45.1,40.3,29.88,West,270,0.0,0.0,83,0.00,,---,1.82,VWS V14.01,2013-04-08 02:04:00,
2013-04-07 19:09:00,45.1,40.3,29.88,SSE,158,0.0,1.3,83,0.00,,---,1.82,VWS V14.01,2013-04-08 02:09:00,
2013-04-07 19:14:00,45.0,40.1,29.88,SSW,202,0.9,0.9,83,0.00,,---,1.82,VWS V14.01,2013-04-08 02:14:00,
2013-04-07 19:19:00,44.8,39.9,29.88,WNW,292,0.0,0.9,83,0.00,,---,1.82,VWS V14.01,2013-04-08 02:19:00,
2013-04-07 19:24:00,44.2,39.7,29.91,WNW,292,0.9,2.9,84,0.00,,---,1.82,VWS V14.01,2013-04-08 02:24:00,
2013-04-07 19:29:00,44.1,39.2,29.91,NW,315,0.0,0.0,83,0.00,,---,1.82,VWS V14.01,2013-04-08 02:29:00,
2013-04-07 19:34:00,43.9,39.1,29.91,West,270,0.0,0.0,83,0.00,,---,1.82,VWS V14.01,2013-04-08 02:34:00,
2013-04-07 19:39:00,43.5,39.0,29.91,NW,315,0.0,0.0,84,0.00,,---,1.82,VWS V14.01,2013-04-08 02:39:00,
2013-04-07 19:45:00,43.3,38.8,29.91,WNW,292,0.0,1.6,84,0.00,,---,1.82,VWS V14.01,2013-04-08 02:45:00,
2013-04-07 19:50:00,43.2,38.7,29.91,West,270,0.0,0.0,84,0.00,,---,1.82,VWS V14.01,2013-04-08 02:50:00,
2013-04-07 19:55:00,42.8,38.3,29.91,SSE,158,1.3,1.3,84,0.00,,---,1.82,VWS V14.01,2013-04-08 02:55:00,
2013-04-07 20:00:00,42.6,38.1,29.91,West,270,0.0,0.0,84,0.00,,---,1.82,VWS V14.01,2013-04-08 03:00:00,
2013-04-07 20:05:00,42.4,38.3,29.91,West,270,0.0,0.0,85,0.00,,---,1.82,VWS V14.01,2013-04-08 03:05:00,
2013-04-07 20:10:00,42.1,37.9,29.91,WSW,248,0.0,0.0,85,0.00,,---,1.82,VWS V14.01,2013-04-08 03:10:00,
2013-04-07 20:16:00,41.9,38.0,29.91,WSW,248,0.0,0.0,86,0.00,,---,1.82,VWS V14.01,2013-04-08 03:16:00,
2013-04-07 20:21:00,41.7,37.8,29.88,North,0,0.0,0.0,86,0.00,,---,1.82,VWS V14.01,2013-04-08 03:21:00,
2013-04-07 20:27:00,41.7,37.8,29.88,North,0,0.0,0.0,86,0.00,,---,1.82,VWS V14.01,2013-04-08 03:27:00,
2013-04-07 20:32:00,41.5,37.7,29.88,West,270,0.0,1.1,86,0.00,,---,1.82,VWS V14.01,2013-04-08 03:32:00,
2013-04-07 20:37:00,41.4,37.8,29.91,West,270,0.0,0.0,87,0.00,,---,1.82,VWS V14.01,2013-04-08 03:37:00,
2013-04-07 20:42:00,41.2,37.6,29.91,West,270,0.0,0.0,87,0.00,,---,1.82,VWS V14.01,2013-04-08 03:42:00,
2013-04-07 20:47:00,40.8,37.5,29.91,WSW,248,0.0,0.0,88,0.00,,---,1.82,VWS V14.01,2013-04-08 03:47:00,
2013-04-07 20:52:00,40.5,37.2,29.91,WSW,248,0.0,0.0,88,0.00,,---,1.82,VWS V14.01,2013-04-08 03:52:00,
2013-04-07 20:57:00,40.3,37.0,29.91,WNW,292,0.0,0.0,88,0.00,,---,1.82,VWS V14.01,2013-04-08 03:57:00,
2013-04-07 21:00:00,40.3,37.0,29.91,WNW,292,0.0,0.0,88,0.00,,---,1.82,VWS V14.01,2013-04-08 04:00:00,
2013-04-07 21:01:00,40.3,37.0,29.91,NNW,338,0.0,0.0,88,0.00,,---,1.82,VWS V14.01,2013-04-08 04:01:00,
2013-04-07 21:02:00,40.3,37.0,29.91,NNW,338,0.0,0.0,88,0.00,,---,1.82,VWS V14.01,2013-04-08 04:02:00,
2013-04-07 21:07:00,40.3,37.3,29.94,NNW,338,0.0,0.0,89,0.00,,---,1.82,VWS V14.01,2013-04-08 04:07:00,
2013-04-07 21:12:00,40.5,37.8,29.94,NNW,338,0.0,0.0,90,0.00,,---,1.82,VWS V14.01,2013-04-08 04:12:00,
2013-04-07 21:17:00,40.5,38.0,29.94,WNW,292,0.0,0.0,91,0.00,,---,1.82,VWS V14.01,2013-04-08 04:17:00,
2013-04-07 21:23:00,40.6,38.2,29.94,South,180,0.0,0.0,91,0.00,,---,1.82,VWS V14.01,2013-04-08 04:23:00,
2013-04-07 21:28:00,40.5,38.0,29.94,South,180,0.0,0.0,91,0.00,,---,1.82,VWS V14.01,2013-04-08 04:28:00,
2013-04-07 21:33:00,40.3,37.9,29.94,West,270,0.0,0.0,91,0.00,,---,1.82,VWS V14.01,2013-04-08 04:33:00,
2013-04-07 21:38:00,39.9,37.2,29.97,NW,315,0.0,0.0,90,0.00,,---,1.82,VWS V14.01,2013-04-08 04:38:00,
2013-04-07 21:43:00,39.9,37.5,29.97,ENE,68,0.9,0.9,91,0.00,,---,1.82,VWS V14.01,2013-04-08 04:43:00,
2013-04-07 21:48:00,39.9,38.1,29.97,ESE,112,0.0,0.0,93,0.00,,---,1.82,VWS V14.01,2013-04-08 04:48:00,
2013-04-07 21:53:00,39.9,38.1,29.97,West,270,0.0,0.0,93,0.00,,---,1.82,VWS V14.01,2013-04-08 04:53:00,
2013-04-07 21:59:00,39.7,37.9,29.97,West,270,0.0,0.0,93,0.00,,---,1.82,VWS V14.01,2013-04-08 04:59:00,
2013-04-07 22:04:00,39.7,37.9,29.97,West,270,0.0,0.0,93,0.00,,---,1.82,VWS V14.01,2013-04-08 05:04:00,
2013-04-07 22:09:00,39.9,38.1,29.97,West,270,0.0,0.0,93,0.00,,---,1.82,VWS V14.01,2013-04-08 05:09:00,
2013-04-07 22:15:00,39.9,38.3,29.97,WSW,248,0.0,0.0,94,0.00,,---,1.82,VWS V14.01,2013-04-08 05:15:00,
2013-04-07 22:20:00,40.1,38.5,29.97,West,270,0.0,0.0,94,0.00,,---,1.82,VWS V14.01,2013-04-08 05:20:00,
2013-04-07 22:25:00,40.1,38.8,29.97,WNW,292,1.3,2.2,95,0.00,,---,1.82,VWS V14.01,2013-04-08 05:25:00,
2013-04-07 22:30:00,40.3,39.0,29.97,West,270,0.0,0.0,95,0.00,,---,1.82,VWS V14.01,2013-04-08 05:30:00,
2013-04-07 22:36:00,40.5,39.1,29.97,SSW,202,0.0,0.0,95,0.04,,---,1.86,VWS V14.01,2013-04-08 05:36:00,
2013-04-07 22:41:00,40.3,39.0,29.97,South,180,0.0,0.0,95,0.04,,---,1.86,VWS V14.01,2013-04-08 05:41:00,
2013-04-07 22:46:00,40.1,38.8,29.97,WNW,292,0.0,0.0,95,0.04,,---,1.86,VWS V14.01,2013-04-08 05:46:00,
2013-04-07 22:51:00,39.7,38.2,29.97,WNW,292,0.0,0.0,94,0.04,,---,1.86,VWS V14.01,2013-04-08 05:51:00,
2013-04-07 22:56:00,39.4,37.8,29.97,WNW,292,0.0,0.0,94,0.04,,---,1.86,VWS V14.01,2013-04-08 05:56:00,
2013-04-07 23:02:00,39.0,37.4,29.97,WNW,292,0.0,0.0,94,0.04,,---,1.86,VWS V14.01,2013-04-08 06:02:00,
2013-04-07 23:07:00,38.8,37.3,29.94,West,270,0.0,0.0,94,0.04,,---,1.86,VWS V14.01,2013-04-08 06:07:00,
2013-04-07 23:12:00,38.5,36.9,29.94,NW,315,0.0,0.0,94,0.04,,---,1.86,VWS V14.01,2013-04-08 06:12:00,
2013-04-07 23:17:00,38.1,36.5,29.94,NW,315,0.0,0.0,94,0.04,,---,1.86,VWS V14.01,2013-04-08 06:17:00,
2013-04-07 23:22:00,37.9,36.4,29.94,NW,315,0.0,0.0,94,0.04,,---,1.86,VWS V14.01,2013-04-08 06:22:00,
2013-04-07 23:27:00,37.6,36.3,29.94,WNW,292,0.0,0.0,95,0.04,,---,1.86,VWS V14.01,2013-04-08 06:27:00,
2013-04-07 23:32:00,37.4,36.1,29.94,WNW,292,0.0,0.0,95,0.04,,---,1.86,VWS V14.01,2013-04-08 06:32:00,
2013-04-07 23:37:00,37.2,35.9,29.97,WNW,292,0.0,0.0,95,0.00,,---,1.86,VWS V14.01,2013-04-08 06:37:00,
2013-04-07 23:42:00,37.0,35.7,29.97,WNW,292,0.0,0.0,95,0.00,,---,1.86,VWS V14.01,2013-04-08 06:42:00,
2013-04-07 23:47:00,37.0,36.0,29.97,WNW,292,0.0,0.0,96,0.00,,---,1.86,VWS V14.01,2013-04-08 06:47:00,
2013-04-07 23:52:00,36.9,35.8,29.97,WNW,292,0.0,0.0,96,0.00,,---,1.86,VWS V14.01,2013-04-08 06:52:00,
2013-04-07 23:58:00,36.9,35.8,29.97,WNW,292,0.0,0.0,96,0.00,,---,1.86,VWS V14.01,2013-04-08 06:58:00,